EZY68GL EGGP-EGNS
Flight info
| Callsign | EZY68GL |
|---|---|
| Flight time | 0h 20m |
| Altitude | 14000 |
| Route | WAL M146 LUSOD DCT IOM |
| Aircraft | A320/M-SDE3FGHIRWY/LB1 |
Departure
| Time | 2026-04-26 19:54 |
|---|---|
| Airport | Liverpool John Lennon Airport (EGGP) |
Arrival
| Time | 2026-04-26 20:14 |
|---|---|
| Airport | Isle of Man Airport (EGNS) |
| Time | Latitude | Longitude | Altitude | Speed | Heading |
|---|---|---|---|---|---|
| 2026-04-26 19:30 | 53.33632 | -2.85190 | 90 ft | 0 kts | 266° |
| 2026-04-26 19:44 | 53.33632 | -2.85188 | 85 ft | 2 kts | 266° |
| 2026-04-26 19:44 | 53.33634 | -2.85161 | 89 ft | 2 kts | 265° |
| 2026-04-26 19:44 | 53.33636 | -2.85134 | 87 ft | 2 kts | 255° |
| 2026-04-26 19:44 | 53.33640 | -2.85107 | 89 ft | 2 kts | 246° |
| 2026-04-26 19:45 | 53.33645 | -2.85091 | 88 ft | 2 kts | 229° |
| 2026-04-26 19:45 | 53.33658 | -2.85075 | 90 ft | 2 kts | 183° |
| 2026-04-26 19:45 | 53.33665 | -2.85075 | 89 ft | 0 kts | 177° |
| 2026-04-26 19:47 | 53.33594 | -2.85068 | 85 ft | 15 kts | 176° |
| 2026-04-26 19:47 | 53.33530 | -2.85015 | 86 ft | 10 kts | 109° |
| 2026-04-26 19:48 | 53.33532 | -2.84883 | 84 ft | 17 kts | 85° |
| 2026-04-26 19:48 | 53.33545 | -2.84584 | 80 ft | 33 kts | 85° |
| 2026-04-26 19:48 | 53.33565 | -2.84200 | 78 ft | 30 kts | 85° |
| 2026-04-26 19:48 | 53.33581 | -2.83844 | 77 ft | 31 kts | 86° |
| 2026-04-26 19:49 | 53.33597 | -2.83505 | 90 ft | 25 kts | 85° |
| 2026-04-26 19:49 | 53.33563 | -2.83321 | 92 ft | 0 kts | 145° |
| 2026-04-26 19:52 | 53.33562 | -2.83321 | 92 ft | 1 kts | 145° |
| 2026-04-26 19:52 | 53.33489 | -2.83292 | 84 ft | 21 kts | 178° |
| 2026-04-26 19:52 | 53.33437 | -2.83381 | 86 ft | 0 kts | 265° |
| 2026-04-26 19:53 | 53.33432 | -2.83489 | 80 ft | 37 kts | 265° |
| 2026-04-26 19:53 | 53.33393 | -2.84347 | 83 ft | 106 kts | 265° |
| 2026-04-26 19:54 | 53.33325 | -2.85878 | 149 ft | 150 kts | 267° |
| 2026-04-26 19:54 | 53.33259 | -2.87651 | 701 ft | 153 kts | 268° |
| 2026-04-26 19:54 | 53.33165 | -2.89506 | 1151 ft | 170 kts | 268° |
| 2026-04-26 19:54 | 53.33081 | -2.91611 | 1419 ft | 192 kts | 275° |
| 2026-04-26 19:55 | 53.33440 | -2.93803 | 1881 ft | 199 kts | 296° |
| 2026-04-26 19:55 | 53.34058 | -2.95908 | 2388 ft | 208 kts | 296° |
| 2026-04-26 19:55 | 53.34734 | -2.98215 | 2707 ft | 234 kts | 295° |
| 2026-04-26 19:55 | 53.35484 | -3.00780 | 3210 ft | 254 kts | 295° |
| 2026-04-26 19:56 | 53.36272 | -3.03477 | 4046 ft | 260 kts | 295° |
| 2026-04-26 19:56 | 53.37075 | -3.06220 | 4968 ft | 264 kts | 294° |
| 2026-04-26 19:56 | 53.37893 | -3.09011 | 5732 ft | 267 kts | 295° |
| 2026-04-26 19:56 | 53.38720 | -3.11824 | 6138 ft | 270 kts | 295° |
| 2026-04-26 19:57 | 53.39765 | -3.14430 | 6259 ft | 271 kts | 312° |
| 2026-04-26 19:57 | 53.41085 | -3.16685 | 6284 ft | 271 kts | 313° |
| 2026-04-26 19:57 | 53.42413 | -3.18937 | 6371 ft | 274 kts | 313° |
| 2026-04-26 19:57 | 53.43752 | -3.21208 | 7284 ft | 274 kts | 313° |
| 2026-04-26 19:58 | 53.45095 | -3.23491 | 8173 ft | 276 kts | 313° |
| 2026-04-26 19:58 | 53.46451 | -3.25800 | 9032 ft | 280 kts | 313° |
| 2026-04-26 19:58 | 53.47808 | -3.28116 | 9879 ft | 283 kts | 313° |
| 2026-04-26 19:58 | 53.49202 | -3.30497 | 10574 ft | 293 kts | 313° |
| 2026-04-26 19:59 | 53.50683 | -3.33032 | 10823 ft | 316 kts | 313° |
| 2026-04-26 19:59 | 53.52279 | -3.35772 | 11046 ft | 339 kts | 313° |
| 2026-04-26 19:59 | 53.53956 | -3.38650 | 11579 ft | 348 kts | 313° |
| 2026-04-26 19:59 | 53.55663 | -3.41580 | 12271 ft | 353 kts | 314° |
| 2026-04-26 20:00 | 53.57386 | -3.44558 | 12988 ft | 356 kts | 312° |
| 2026-04-26 20:00 | 53.58923 | -3.47857 | 13683 ft | 360 kts | 305° |
| 2026-04-26 20:00 | 53.60381 | -3.51319 | 14165 ft | 364 kts | 305° |
| 2026-04-26 20:00 | 53.61844 | -3.54808 | 14274 ft | 369 kts | 305° |
| 2026-04-26 20:01 | 53.63350 | -3.58404 | 14299 ft | 389 kts | 305° |
| 2026-04-26 20:01 | 53.64929 | -3.62162 | 14296 ft | 395 kts | 305° |
| 2026-04-26 20:01 | 53.66517 | -3.65940 | 14295 ft | 395 kts | 305° |
| 2026-04-26 20:01 | 53.68100 | -3.69715 | 14299 ft | 394 kts | 305° |
| 2026-04-26 20:02 | 53.69687 | -3.73469 | 14290 ft | 388 kts | 307° |
| 2026-04-26 20:02 | 53.71608 | -3.76468 | 14296 ft | 370 kts | 327° |
| 2026-04-26 20:02 | 53.73936 | -3.78233 | 14299 ft | 365 kts | 339° |
| 2026-04-26 20:02 | 53.75525 | -3.79177 | 14299 ft | 364 kts | 340° |
| 2026-04-26 20:03 | 53.78655 | -3.81321 | 14302 ft | 362 kts | 331° |
| 2026-04-26 20:03 | 53.80865 | -3.83355 | 13941 ft | 362 kts | 330° |
| 2026-04-26 20:03 | 53.83084 | -3.85431 | 13385 ft | 365 kts | 329° |
| 2026-04-26 20:03 | 53.85308 | -3.87510 | 12732 ft | 365 kts | 329° |
| 2026-04-26 20:04 | 53.87519 | -3.89565 | 12083 ft | 356 kts | 329° |
| 2026-04-26 20:04 | 53.89648 | -3.91532 | 11449 ft | 342 kts | 329° |
| 2026-04-26 20:04 | 53.91705 | -3.93417 | 10826 ft | 330 kts | 329° |
| 2026-04-26 20:04 | 53.93699 | -3.95229 | 10254 ft | 320 kts | 329° |
| 2026-04-26 20:05 | 53.95610 | -3.96942 | 9733 ft | 309 kts | 329° |
| 2026-04-26 20:05 | 53.97484 | -3.98616 | 9203 ft | 298 kts | 329° |
| 2026-04-26 20:05 | 53.99293 | -4.00231 | 8678 ft | 289 kts | 329° |
| 2026-04-26 20:05 | 54.01051 | -4.01799 | 8170 ft | 281 kts | 329° |
| 2026-04-26 20:06 | 54.02760 | -4.03327 | 7671 ft | 274 kts | 329° |
| 2026-04-26 20:06 | 54.04422 | -4.04818 | 7175 ft | 267 kts | 329° |
| 2026-04-26 20:06 | 54.06043 | -4.06272 | 6736 ft | 259 kts | 329° |
| 2026-04-26 20:06 | 54.07609 | -4.07683 | 6320 ft | 249 kts | 328° |
| 2026-04-26 20:07 | 54.09012 | -4.09305 | 5911 ft | 240 kts | 320° |
| 2026-04-26 20:07 | 54.10126 | -4.11318 | 5514 ft | 230 kts | 298° |
| 2026-04-26 20:07 | 54.10630 | -4.13816 | 5196 ft | 220 kts | 275° |
| 2026-04-26 20:07 | 54.10709 | -4.16381 | 4869 ft | 214 kts | 272° |
| 2026-04-26 20:08 | 54.10769 | -4.18878 | 4546 ft | 208 kts | 271° |
| 2026-04-26 20:08 | 54.10827 | -4.21300 | 4264 ft | 201 kts | 272° |
| 2026-04-26 20:08 | 54.10880 | -4.23647 | 3979 ft | 196 kts | 273° |
| 2026-04-26 20:08 | 54.10929 | -4.25882 | 3737 ft | 186 kts | 273° |
| 2026-04-26 20:09 | 54.10976 | -4.28057 | 3456 ft | 182 kts | 274° |
| 2026-04-26 20:09 | 54.11025 | -4.30208 | 3170 ft | 181 kts | 274° |
| 2026-04-26 20:09 | 54.11075 | -4.32316 | 2901 ft | 173 kts | 273° |
| 2026-04-26 20:09 | 54.11120 | -4.34300 | 2637 ft | 163 kts | 274° |
| 2026-04-26 20:10 | 54.11164 | -4.36211 | 2352 ft | 159 kts | 273° |
| 2026-04-26 20:10 | 54.11206 | -4.38081 | 2085 ft | 157 kts | 273° |
| 2026-04-26 20:10 | 54.11123 | -4.39927 | 2009 ft | 157 kts | 259° |
| 2026-04-26 20:10 | 54.10903 | -4.41696 | 2000 ft | 146 kts | 259° |
| 2026-04-26 20:11 | 54.10696 | -4.43348 | 2001 ft | 140 kts | 259° |
| 2026-04-26 20:11 | 54.10499 | -4.44940 | 1928 ft | 138 kts | 259° |
| 2026-04-26 20:11 | 54.10300 | -4.46539 | 1784 ft | 137 kts | 259° |
| 2026-04-26 20:12 | 54.09907 | -4.49711 | 1440 ft | 136 kts | 258° |
| 2026-04-26 20:12 | 54.09711 | -4.51290 | 1257 ft | 136 kts | 259° |
| 2026-04-26 20:12 | 54.09515 | -4.52871 | 1075 ft | 136 kts | 258° |
| 2026-04-26 20:12 | 54.09319 | -4.54440 | 884 ft | 135 kts | 258° |
| 2026-04-26 20:13 | 54.09124 | -4.56007 | 701 ft | 135 kts | 258° |
| 2026-04-26 20:13 | 54.08929 | -4.57571 | 520 ft | 135 kts | 258° |
| 2026-04-26 20:13 | 54.08735 | -4.59138 | 327 ft | 135 kts | 259° |
| 2026-04-26 20:13 | 54.08543 | -4.60690 | 124 ft | 134 kts | 258° |
| 2026-04-26 20:14 | 54.08345 | -4.62213 | 33 ft | 125 kts | 257° |
| 2026-04-26 20:14 | 54.08229 | -4.63167 | 40 ft | 38 kts | 258° |
| 2026-04-26 20:14 | 54.08267 | -4.63332 | 41 ft | 0 kts | 341° |
| 2026-04-26 20:14 | 54.08272 | -4.63334 | 41 ft | 5 kts | 341° |
| 2026-04-26 20:15 | 54.08364 | -4.63369 | 40 ft | 14 kts | 347° |
| 2026-04-26 20:15 | 54.08460 | -4.63379 | 38 ft | 13 kts | 27° |
| 2026-04-26 20:15 | 54.08534 | -4.63353 | 40 ft | 11 kts | 319° |
| 2026-04-26 20:15 | 54.08578 | -4.63411 | 40 ft | 6 kts | 351° |
| 2026-04-26 20:16 | 54.08604 | -4.63381 | 39 ft | 0 kts | 44° |
| 2026-04-26 20:17 | 54.08605 | -4.63381 | 40 ft | 0 kts | 44° |